createdAt,value
2023-03-16T00:02:25.577Z,100651.72
2023-03-16T00:04:52.533Z,100634.44
2023-03-16T00:07:19.327Z,100630.94
2023-03-16T00:09:47.009Z,100615.41
2023-03-16T00:12:16.526Z,100605.91
2023-03-16T00:14:44.835Z,100595.53
2023-03-16T00:17:19.438Z,100588.59
2023-03-16T00:19:55.509Z,100591.16
2023-03-16T00:22:24.639Z,100580.78
2023-03-16T00:24:53.122Z,100554.03
2023-03-16T00:27:20.442Z,100570.41
2023-03-16T00:29:48.877Z,100535.88
2023-03-16T00:32:21.056Z,100534.97
2023-03-16T00:34:48.203Z,100529.75
2023-03-16T00:37:19.476Z,100512.44
2023-03-16T00:39:47.536Z,100504.66
2023-03-16T00:42:15.440Z,100510.66
2023-03-16T00:44:43.280Z,100487.31
2023-03-16T00:47:14.779Z,100477.81
2023-03-16T00:49:44.797Z,100480.41
2023-03-16T00:52:16.434Z,100454.50
2023-03-16T00:54:44.408Z,100453.56
2023-03-16T00:57:14.102Z,100452.66
2023-03-16T00:59:41.235Z,100438.84
2023-03-16T01:02:10.170Z,100408.66
2023-03-16T01:04:37.712Z,100418.13
2023-03-16T01:07:05.618Z,100404.25
2023-03-16T01:09:37.199Z,100396.47
2023-03-16T01:12:09.315Z,100402.53
2023-03-16T01:14:37.004Z,100383.50
2023-03-16T01:17:05.398Z,100389.50
2023-03-16T01:19:34.324Z,100374.84
2023-03-16T01:22:02.248Z,100360.16
2023-03-16T01:24:29.161Z,100357.53
2023-03-16T01:26:55.933Z,100368.72
2023-03-16T01:29:23.115Z,100342.78
2023-03-16T01:31:50.514Z,100344.53
2023-03-16T01:34:18.796Z,100336.78
2023-03-16T01:36:48.049Z,100318.66
2023-03-16T01:39:15.833Z,100326.34
2023-03-16T01:41:43.656Z,100312.53
2023-03-16T01:44:16.595Z,100285.91
2023-03-16T01:46:44.768Z,100310.75
2023-03-16T01:49:25.313Z,100304.59
2023-03-16T01:52:06.125Z,100293.34
2023-03-16T01:54:32.937Z,100280.31
2023-03-16T01:57:15.504Z,100267.38
2023-03-16T01:59:47.177Z,100250.09
2023-03-16T02:02:16.378Z,100237.94
2023-03-16T02:05:07.228Z,100238.84
2023-03-16T02:07:38.219Z,100195.72
2023-03-16T02:10:07.041Z,100206.88
2023-03-16T02:12:33.934Z,100188.69
2023-03-16T02:15:00.577Z,100173.91
2023-03-16T02:17:29.293Z,100161.75
2023-03-16T02:20:29.074Z,100179.84
2023-03-16T02:22:56.037Z,100149.66
2023-03-16T02:25:26.805Z,100159.13
2023-03-16T02:28:21.616Z,100139.19
2023-03-16T02:30:48.748Z,100140.06
2023-03-16T02:33:16.770Z,100125.41
2023-03-16T02:35:43.465Z,100127.91
2023-03-16T02:38:10.439Z,100127.88
2023-03-16T02:40:38.787Z,100120.97
2023-03-16T02:43:13.021Z,100110.47
2023-03-16T02:45:53.076Z,100105.34
2023-03-16T02:48:25.465Z,100082.94
2023-03-16T02:50:54.017Z,100075.19
2023-03-16T02:53:21.055Z,100069.91
2023-03-16T02:55:47.788Z,100062.13
2023-03-16T02:58:16.149Z,100044.16
2023-03-16T03:00:43.143Z,100063.03
2023-03-16T03:03:09.971Z,100061.31
2023-03-16T03:05:37.683Z,100049.38
2023-03-16T03:08:05.405Z,100064.09
2023-03-16T03:10:32.352Z,100065.09
2023-03-16T03:12:59.092Z,100048.72
2023-03-16T03:15:25.745Z,100057.38
2023-03-16T03:17:53.082Z,100078.03
2023-03-16T03:20:20.109Z,100084.19
2023-03-16T03:22:48.873Z,100081.53
2023-03-16T03:25:18.604Z,100074.75
2023-03-16T03:27:46.569Z,100088.50
2023-03-16T03:30:15.923Z,100092.84
2023-03-16T03:32:44.328Z,100096.38
2023-03-16T03:35:12.868Z,100099.97
2023-03-16T03:37:41.332Z,100111.09
2023-03-16T03:40:10.454Z,100105.09
2023-03-16T03:42:37.465Z,100112.94
2023-03-16T03:45:04.740Z,100106.81
2023-03-16T03:47:31.738Z,100107.94
2023-03-16T03:49:58.424Z,100123.47
2023-03-16T03:52:25.140Z,100119.16
2023-03-16T03:54:51.778Z,100136.38
2023-03-16T03:57:19.861Z,100137.22
2023-03-16T03:59:48.348Z,100146.72
2023-03-16T04:02:15.238Z,100143.38
2023-03-16T04:04:42.391Z,100155.47
2023-03-16T04:07:09.500Z,100156.44
2023-03-16T04:09:36.628Z,100165.09
2023-03-16T04:12:05.570Z,100165.88
2023-03-16T04:14:32.775Z,100180.63
2023-03-16T04:16:59.578Z,100184.91
2023-03-16T04:19:26.457Z,100199.56
2023-03-16T04:21:53.345Z,100181.59
2023-03-16T04:24:20.126Z,100194.47
2023-03-16T04:26:47.008Z,100209.06
2023-03-16T04:29:15.016Z,100213.34
2023-03-16T04:31:42.522Z,100198.03
2023-03-16T04:34:09.408Z,100203.03
2023-03-16T04:36:36.072Z,100219.44
2023-03-16T04:39:03.179Z,100224.59
2023-03-16T04:41:29.961Z,100235.81
2023-03-16T04:43:57.858Z,100216.94
2023-03-16T04:46:26.977Z,100237.59
2023-03-16T04:48:54.351Z,100217.84
2023-03-16T04:51:21.663Z,100217.94
2023-03-16T04:53:48.327Z,100218.03
2023-03-16T04:56:19.897Z,100218.13
2023-03-16T04:58:47.878Z,100224.34
2023-03-16T05:01:15.497Z,100232.13
2023-03-16T05:03:43.720Z,100228.75
2023-03-16T05:06:12.063Z,100232.16
2023-03-16T05:08:38.895Z,100257.25
2023-03-16T05:11:05.872Z,100246.09
2023-03-16T05:13:32.951Z,100250.41
2023-03-16T05:15:59.821Z,100259.00
2023-03-16T05:18:27.127Z,100271.13
2023-03-16T05:20:56.177Z,100258.22
2023-03-16T05:23:23.483Z,100274.56
2023-03-16T05:25:50.839Z,100290.03
2023-03-16T05:28:17.726Z,100300.44
2023-03-16T05:30:45.501Z,100308.25
2023-03-16T05:33:12.696Z,100327.19
2023-03-16T05:35:39.690Z,100335.03
2023-03-16T05:38:06.522Z,100357.41
2023-03-16T05:40:43.478Z,100341.94
2023-03-16T05:43:10.578Z,100378.16
2023-03-16T05:45:37.373Z,100354.91
2023-03-16T05:48:06.025Z,100400.59
2023-03-16T05:50:32.886Z,100392.88
2023-03-16T05:52:59.689Z,100389.41
2023-03-16T05:55:26.453Z,100409.25
2023-03-16T05:57:53.174Z,100413.59
2023-03-16T06:00:20.997Z,100417.03
2023-03-16T06:02:49.366Z,100382.53
2023-03-16T06:05:21.942Z,100404.97
2023-03-16T06:07:50.232Z,100432.53
2023-03-16T06:10:17.507Z,100456.69
2023-03-16T06:12:44.721Z,100477.41
2023-03-16T06:15:11.888Z,100492.06
2023-03-16T06:17:39.635Z,100505.88
2023-03-16T06:20:11.477Z,100530.00
2023-03-16T06:22:39.617Z,100555.06
2023-03-16T06:25:07.024Z,100563.63
2023-03-16T06:27:33.802Z,100580.03
2023-03-16T06:30:00.794Z,100594.66
2023-03-16T06:32:27.513Z,100614.53
2023-03-16T06:34:54.175Z,100622.25
2023-03-16T06:37:21.911Z,100654.19
2023-03-16T06:39:48.784Z,100668.88
2023-03-16T06:42:15.677Z,100695.66
2023-03-16T06:44:42.845Z,100703.47
2023-03-16T06:47:10.534Z,100733.66
2023-03-16T06:49:37.473Z,100750.94
2023-03-16T06:52:04.580Z,100740.50
2023-03-16T06:54:34.395Z,100752.59
2023-03-16T06:57:01.735Z,100759.50
2023-03-16T06:59:28.729Z,100763.81
2023-03-16T07:01:56.235Z,100765.59
2023-03-16T07:04:23.094Z,100764.69
2023-03-16T07:06:49.858Z,100754.31
2023-03-16T07:09:16.572Z,100750.84
2023-03-16T07:11:43.468Z,100763.00
2023-03-16T07:14:10.195Z,100738.81
2023-03-16T07:16:36.891Z,100754.38
2023-03-16T07:19:03.786Z,100741.44
2023-03-16T07:21:32.262Z,100739.75
2023-03-16T07:23:59.002Z,100727.69
2023-03-16T07:26:25.706Z,100726.78
2023-03-16T07:28:52.439Z,100730.31
2023-03-16T07:31:19.283Z,100709.56
2023-03-16T07:33:46.323Z,100722.53
2023-03-16T07:36:13.067Z,100698.41
2023-03-16T07:38:40.237Z,100683.72
2023-03-16T07:41:06.950Z,100674.22
2023-03-16T07:43:34.506Z,100669.91
2023-03-16T07:46:01.636Z,100640.56
2023-03-16T07:48:28.529Z,100620.69
2023-03-16T07:50:55.544Z,100624.16
2023-03-16T07:53:22.813Z,100577.53
2023-03-16T07:55:49.631Z,100595.69
2023-03-16T07:58:16.437Z,100577.50
2023-03-16T08:00:43.226Z,100545.56
2023-03-16T08:03:10.253Z,100546.47
2023-03-16T08:05:37.034Z,100541.22
2023-03-16T08:08:03.932Z,100530.03
2023-03-16T08:10:31.600Z,100531.72
2023-03-16T08:12:59.063Z,100509.28
2023-03-16T08:15:25.976Z,100501.50
2023-03-16T08:17:52.790Z,100494.59
2023-03-16T08:20:19.711Z,100479.03
2023-03-16T08:22:46.985Z,100484.22
2023-03-16T08:25:14.835Z,100466.06
2023-03-16T08:27:43.253Z,100459.16
2023-03-16T08:30:11.870Z,100462.56
2023-03-16T08:32:52.596Z,100415.97
2023-03-16T08:35:19.605Z,100366.78
2023-03-16T08:37:46.618Z,100393.50
2023-03-16T08:40:18.906Z,100305.63
2023-03-16T08:42:45.979Z,100386.56
2023-03-16T08:45:14.305Z,100391.75
2023-03-16T08:47:41.387Z,100395.13
2023-03-16T08:50:09.383Z,100410.66
2023-03-16T08:52:38.899Z,100398.50
2023-03-16T08:55:06.622Z,100408.81
2023-03-16T08:57:34.130Z,100391.59
2023-03-16T09:00:01.552Z,100383.00
2023-03-16T09:02:29.172Z,100389.91
2023-03-16T09:04:56.512Z,100392.34
2023-03-16T09:07:23.615Z,100370.97
2023-03-16T09:09:51.019Z,100363.19
2023-03-16T09:12:17.955Z,100357.25
2023-03-16T09:14:46.175Z,100356.31
2023-03-16T09:17:16.062Z,100389.09
2023-03-16T09:19:52.145Z,100350.19
2023-03-16T09:22:20.637Z,100380.34
2023-03-16T09:24:48.663Z,100360.56
2023-03-16T09:27:18.606Z,100375.09
2023-03-16T09:29:45.580Z,100350.09
2023-03-16T09:32:13.223Z,100351.81
2023-03-16T09:34:40.367Z,100331.06
2023-03-16T09:37:07.312Z,100310.38
2023-03-16T09:39:34.120Z,100359.47
2023-03-16T09:42:04.578Z,100345.56
2023-03-16T09:45:00.630Z,100347.31
2023-03-16T09:47:31.582Z,100342.03
2023-03-16T09:50:01.059Z,100330.78
2023-03-16T09:52:49.248Z,100324.72
2023-03-16T09:55:25.031Z,100323.84
2023-03-16T09:57:53.872Z,100320.34
2023-03-16T10:00:22.284Z,100319.50
2023-03-16T10:03:08.389Z,100311.66
2023-03-16T10:05:36.194Z,100296.06
2023-03-16T10:08:25.336Z,100290.75
2023-03-16T10:11:38.706Z,100294.28
2023-03-16T10:14:17.845Z,100287.13
2023-03-16T10:17:10.820Z,100276.69
2023-03-16T10:19:54.396Z,100280.28
2023-03-16T10:22:29.917Z,100245.00
2023-03-16T10:25:39.702Z,100274.97
2023-03-16T10:28:06.633Z,100246.50
2023-03-16T10:30:37.538Z,100224.00
2023-03-16T10:33:13.474Z,100232.56
2023-03-16T10:35:51.812Z,100238.69
2023-03-16T10:38:29.106Z,100235.31
2023-03-16T10:40:57.960Z,100212.97
2023-03-16T10:43:25.400Z,100232.75
2023-03-16T10:45:52.398Z,100175.94
2023-03-16T10:48:21.327Z,100244.69
2023-03-16T10:50:52.791Z,100239.44
2023-03-16T10:53:28.997Z,100242.31
2023-03-16T10:56:00.885Z,100242.09
2023-03-16T10:58:31.072Z,100211.38
2023-03-16T11:00:58.654Z,100228.56
2023-03-16T11:03:41.314Z,100235.41
2023-03-16T11:06:20.702Z,100238.63
2023-03-16T11:08:47.975Z,100221.38
2023-03-16T11:11:18.811Z,100225.72
2023-03-16T11:13:47.703Z,100218.94
2023-03-16T11:16:30.706Z,100212.63
2023-03-16T11:19:00.795Z,100207.34
2023-03-16T11:21:46.927Z,100200.53
2023-03-16T11:24:23.903Z,100192.09
2023-03-16T11:26:56.044Z,100172.41
2023-03-16T11:29:34.886Z,100211.31
2023-03-16T11:32:06.172Z,100202.72
2023-03-16T11:34:33.398Z,100212.91
2023-03-16T11:37:13.248Z,100213.78
2023-03-16T11:39:46.236Z,100217.31
2023-03-16T11:42:34.539Z,100203.59
2023-03-16T11:45:19.703Z,100213.03
2023-03-16T11:48:03.129Z,100232.84
2023-03-16T11:50:52.853Z,100230.31
2023-03-16T11:54:00.390Z,100226.81
2023-03-16T11:56:44.313Z,100232.72
2023-03-16T11:59:11.298Z,100227.34
2023-03-16T12:02:00.706Z,100235.09
2023-03-16T12:04:56.999Z,100213.63
2023-03-16T12:07:56.967Z,100219.72
2023-03-16T12:10:26.808Z,100221.56
2023-03-16T12:13:08.820Z,100221.59
2023-03-16T12:15:55.547Z,100225.03
2023-03-16T12:18:43.906Z,100222.50
2023-03-16T12:21:15.077Z,100225.13
2023-03-16T12:23:53.454Z,100226.00
2023-03-16T12:26:22.479Z,100236.38
2023-03-16T12:28:50.851Z,100217.38
2023-03-16T12:31:22.808Z,100235.50
2023-03-16T12:33:59.036Z,100237.34
2023-03-16T12:37:07.408Z,100253.00
2023-03-16T12:40:08.098Z,100267.75
2023-03-16T12:43:06.003Z,100256.50
2023-03-16T12:45:42.194Z,100256.44
2023-03-16T12:48:12.745Z,100252.97
2023-03-16T12:51:09.097Z,100270.13
2023-03-16T12:54:06.424Z,100263.28
2023-03-16T12:56:36.030Z,100259.09
2023-03-16T12:59:05.996Z,100267.81
2023-03-16T13:01:42.728Z,100276.47
2023-03-16T13:04:12.635Z,100267.97
2023-03-16T13:06:44.460Z,100281.72
2023-03-16T13:09:12.537Z,100286.09
2023-03-16T13:11:50.142Z,100284.44
2023-03-16T13:14:38.754Z,100273.22
2023-03-16T13:17:29.688Z,100286.19
2023-03-16T13:20:31.271Z,100303.44
2023-03-16T13:23:24.692Z,100309.47
2023-03-16T13:26:20.019Z,100307.75
2023-03-16T13:28:51.573Z,100312.88
2023-03-16T13:31:25.790Z,100311.28
2023-03-16T13:33:56.016Z,100291.44
2023-03-16T13:36:25.525Z,100294.00
2023-03-16T13:39:13.639Z,100306.09
2023-03-16T13:41:43.616Z,100302.66
2023-03-16T13:44:15.216Z,100314.69
2023-03-16T13:46:41.900Z,100325.91
2023-03-16T13:49:12.197Z,100328.53
2023-03-16T13:51:38.874Z,100313.91
2023-03-16T13:54:16.261Z,100307.03
2023-03-16T13:56:44.417Z,100306.19
2023-03-16T13:59:11.749Z,100315.75
2023-03-16T14:01:39.030Z,100317.41
2023-03-16T14:04:13.647Z,100319.19
2023-03-16T14:06:41.487Z,100305.38
2023-03-16T14:09:22.077Z,100330.47
2023-03-16T14:11:48.938Z,100309.78
2023-03-16T14:14:17.833Z,100320.13
2023-03-16T14:16:44.780Z,100327.06
2023-03-16T14:19:23.042Z,100341.72
2023-03-16T14:21:50.176Z,100352.13
2023-03-16T14:24:43.116Z,100350.41
2023-03-16T14:27:21.989Z,100336.69
2023-03-16T14:30:14.788Z,100365.06
2023-03-16T14:32:42.023Z,100383.19
2023-03-16T14:35:18.365Z,100390.97
2023-03-16T14:37:45.120Z,100392.72
2023-03-16T14:40:22.982Z,100385.88
2023-03-16T14:42:49.982Z,100386.72
2023-03-16T14:45:17.707Z,100380.72
2023-03-16T14:47:46.229Z,100417.81
2023-03-16T14:50:39.378Z,100394.50
2023-03-16T14:53:06.955Z,100412.63
2023-03-16T14:55:33.763Z,100420.44
2023-03-16T14:58:00.620Z,100408.38
2023-03-16T15:00:27.325Z,100434.25
2023-03-16T15:03:06.779Z,100435.97
2023-03-16T15:05:39.270Z,100431.66
2023-03-16T15:08:07.880Z,100430.75
2023-03-16T15:10:35.485Z,100441.16
2023-03-16T15:13:13.144Z,100451.53
2023-03-16T15:15:44.176Z,100434.25
2023-03-16T15:18:11.003Z,100450.69
2023-03-16T15:20:43.482Z,100440.31
2023-03-16T15:23:13.913Z,100440.28
2023-03-16T15:25:44.967Z,100454.97
2023-03-16T15:28:26.121Z,100456.69
2023-03-16T15:30:54.638Z,100429.97
2023-03-16T15:33:22.213Z,100470.53
2023-03-16T15:35:50.206Z,100474.81
2023-03-16T15:38:21.576Z,100470.53
2023-03-16T15:40:51.346Z,100494.69
2023-03-16T15:43:24.663Z,100483.44
2023-03-16T15:45:54.844Z,100492.97
2023-03-16T15:48:24.724Z,100498.13
2023-03-16T15:50:58.890Z,100521.41
2023-03-16T15:53:35.778Z,100511.88
2023-03-16T15:56:11.713Z,100536.03
2023-03-16T15:58:42.003Z,100544.69
2023-03-16T16:01:21.386Z,100547.25
2023-03-16T16:03:48.537Z,100557.63
2023-03-16T16:06:15.290Z,100582.63
2023-03-16T16:08:42.067Z,100594.69
2023-03-16T16:11:35.171Z,100605.03
2023-03-16T16:14:02.299Z,100611.03
2023-03-16T16:16:29.916Z,100607.59
2023-03-16T16:18:57.076Z,100624.88
2023-03-16T16:21:28.088Z,100603.25
2023-03-16T16:23:55.194Z,100626.53
2023-03-16T16:26:47.029Z,100643.81
2023-03-16T16:29:16.826Z,100637.75
2023-03-16T16:31:44.097Z,100638.63
2023-03-16T16:34:16.145Z,100642.13
2023-03-16T16:36:43.497Z,100637.78
2023-03-16T16:39:10.412Z,100642.13
2023-03-16T16:41:37.538Z,100637.75
2023-03-16T16:44:08.441Z,100659.34
2023-03-16T16:46:42.551Z,100630.00
2023-03-16T16:49:19.651Z,100634.31
2023-03-16T16:51:46.904Z,100635.16
2023-03-16T16:54:22.104Z,100635.16
2023-03-16T16:56:50.897Z,100639.50
2023-03-16T16:59:23.356Z,100649.00
2023-03-16T17:01:57.678Z,100648.97
2023-03-16T17:04:27.282Z,100652.44
2023-03-16T17:07:01.624Z,100645.56
2023-03-16T17:09:30.247Z,100633.47
2023-03-16T17:11:59.279Z,100649.00
2023-03-16T17:14:28.565Z,100624.78
2023-03-16T17:16:55.782Z,100612.75
2023-03-16T17:19:24.953Z,100624.81
2023-03-16T17:21:53.067Z,100619.63
2023-03-16T17:24:19.915Z,100610.19
2023-03-16T17:26:51.257Z,100606.75
2023-03-16T17:29:38.255Z,100610.19
2023-03-16T17:32:17.439Z,100610.19
2023-03-16T17:34:44.285Z,100592.97
2023-03-16T17:37:21.167Z,100598.13
2023-03-16T17:39:48.323Z,100571.41
2023-03-16T17:42:19.549Z,100568.81
2023-03-16T17:44:48.321Z,100573.16
2023-03-16T17:47:24.740Z,100558.50
2023-03-16T17:49:52.105Z,100555.03
2023-03-16T17:52:21.186Z,100540.34
2023-03-16T17:54:49.289Z,100542.06
2023-03-16T17:57:27.771Z,100544.66
2023-03-16T17:59:55.098Z,100543.78
2023-03-16T18:02:51.721Z,100518.75
2023-03-16T18:05:23.861Z,100526.53
2023-03-16T18:07:51.818Z,100520.53
2023-03-16T18:10:27.098Z,100517.06
2023-03-16T18:13:02.210Z,100521.38
2023-03-16T18:15:34.398Z,100523.97
2023-03-16T18:18:02.116Z,100469.63
2023-03-16T18:20:36.337Z,100523.13
2023-03-16T18:23:15.874Z,100508.47
2023-03-16T18:25:43.116Z,100467.88
2023-03-16T18:28:10.996Z,100491.19
2023-03-16T18:30:39.097Z,100500.69
2023-03-16T18:33:07.489Z,100507.59
2023-03-16T18:35:35.629Z,100509.28
2023-03-16T18:38:03.220Z,100498.06
2023-03-16T18:40:30.659Z,100498.06
2023-03-16T18:42:57.761Z,100501.50
2023-03-16T18:45:25.663Z,100505.81
2023-03-16T18:47:56.628Z,100516.16
2023-03-16T18:50:28.294Z,100510.09
2023-03-16T18:52:55.592Z,100519.59
2023-03-16T18:55:25.206Z,100515.25
2023-03-16T18:57:56.430Z,100520.44
2023-03-16T19:00:27.300Z,100525.59
2023-03-16T19:02:57.010Z,100535.06
2023-03-16T19:05:31.854Z,100514.34
2023-03-16T19:07:58.614Z,100523.00
2023-03-16T19:10:30.135Z,100520.38
2023-03-16T19:12:56.892Z,100517.75
2023-03-16T19:15:29.544Z,100535.94
2023-03-16T19:17:56.612Z,100527.28
2023-03-16T19:20:25.796Z,100543.69
2023-03-16T19:23:00.936Z,100512.56
2023-03-16T19:25:34.886Z,100556.59
2023-03-16T19:28:02.217Z,100546.22
2023-03-16T19:30:31.212Z,100541.91
2023-03-16T19:32:58.729Z,100546.22
2023-03-16T19:35:44.259Z,100533.22
2023-03-16T19:38:14.438Z,100569.47
2023-03-16T19:40:41.767Z,100560.81
2023-03-16T19:43:18.918Z,100558.25
2023-03-16T19:45:46.992Z,100540.06
2023-03-16T19:48:16.512Z,100559.09
2023-03-16T19:50:43.279Z,100547.91
2023-03-16T19:53:16.357Z,100553.91
2023-03-16T19:55:44.692Z,100562.56
2023-03-16T19:58:21.038Z,100524.50
2023-03-16T20:00:47.894Z,100568.50
2023-03-16T20:03:14.882Z,100547.81
2023-03-16T20:05:41.569Z,100552.16
2023-03-16T20:08:29.013Z,100572.81
2023-03-16T20:11:01.787Z,100560.78
2023-03-16T20:13:29.028Z,100561.63
2023-03-16T20:15:56.110Z,100550.38
2023-03-16T20:18:23.794Z,100559.03
2023-03-16T20:20:50.912Z,100543.44
2023-03-16T20:23:19.208Z,100556.41
2023-03-16T20:25:47.814Z,100559.78
2023-03-16T20:28:19.164Z,100570.13
2023-03-16T20:30:47.365Z,100559.78
2023-03-16T20:33:23.788Z,100577.00
2023-03-16T20:35:53.620Z,100556.25
2023-03-16T20:38:21.338Z,100575.31
2023-03-16T20:40:52.406Z,100567.50
2023-03-16T20:43:23.771Z,100575.25
2023-03-16T20:45:51.846Z,100585.63
2023-03-16T20:48:19.033Z,100575.22
2023-03-16T20:50:48.411Z,100585.59
2023-03-16T20:53:15.217Z,100580.41
2023-03-16T20:55:41.985Z,100592.50
2023-03-16T20:58:20.899Z,100592.47
2023-03-16T21:00:50.647Z,100586.50
2023-03-16T21:03:23.187Z,100575.22
2023-03-16T21:05:51.676Z,100591.66
2023-03-16T21:08:19.317Z,100592.44
2023-03-16T21:10:48.657Z,100588.16
2023-03-16T21:13:25.796Z,100594.19
2023-03-16T21:15:52.916Z,100568.19
2023-03-16T21:18:20.926Z,100601.06
2023-03-16T21:20:49.481Z,100588.16
2023-03-16T21:23:23.891Z,100588.16
2023-03-16T21:25:57.523Z,100565.72
2023-03-16T21:28:29.064Z,100589.91
2023-03-16T21:30:57.623Z,100592.44
2023-03-16T21:33:38.150Z,100579.53
2023-03-16T21:36:08.341Z,100580.41
2023-03-16T21:38:35.027Z,100581.28
2023-03-16T21:41:01.684Z,100582.09
2023-03-16T21:43:28.495Z,100577.75
2023-03-16T21:45:55.634Z,100587.22
2023-03-16T21:48:39.800Z,100562.19
2023-03-16T21:51:14.945Z,100580.25
2023-03-16T21:53:41.974Z,100575.13
2023-03-16T21:56:13.257Z,100575.13
2023-03-16T21:58:40.067Z,100572.56
2023-03-16T22:01:07.185Z,100576.00
2023-03-16T22:03:50.149Z,100564.72
2023-03-16T22:06:17.354Z,100581.16
2023-03-16T22:08:44.281Z,100570.78
2023-03-16T22:11:22.762Z,100566.47
2023-03-16T22:13:51.151Z,100582.84
2023-03-16T22:16:23.418Z,100578.56
2023-03-16T22:18:58.811Z,100586.25
2023-03-16T22:21:29.582Z,100578.53
2023-03-16T22:23:57.778Z,100580.22
2023-03-16T22:26:25.216Z,100580.22
2023-03-16T22:28:52.587Z,100557.75
2023-03-16T22:31:39.512Z,100581.94
2023-03-16T22:34:06.899Z,100569.78
2023-03-16T22:36:34.041Z,100585.34
2023-03-16T22:39:12.614Z,100587.94
2023-03-16T22:41:39.507Z,100588.81
2023-03-16T22:44:08.948Z,100579.31
2023-03-16T22:46:35.784Z,100577.53
2023-03-16T22:49:02.472Z,100581.88
2023-03-16T22:51:35.148Z,100584.50
2023-03-16T22:54:04.652Z,100569.81
2023-03-16T22:56:32.568Z,100574.19
2023-03-16T22:59:02.677Z,100572.47
2023-03-16T23:01:34.224Z,100565.56
2023-03-16T23:04:02.010Z,100572.50
2023-03-16T23:06:33.775Z,100572.50
2023-03-16T23:09:00.873Z,100560.34
2023-03-16T23:11:32.995Z,100567.31
2023-03-16T23:14:00.763Z,100546.66
2023-03-16T23:16:30.570Z,100563.81
2023-03-16T23:18:57.435Z,100557.84
2023-03-16T23:21:25.838Z,100562.94
2023-03-16T23:24:03.130Z,100589.63
2023-03-16T23:26:31.167Z,100566.41
2023-03-16T23:28:58.186Z,100581.06
2023-03-16T23:31:27.323Z,100574.03
2023-03-16T23:33:54.427Z,100565.56
2023-03-16T23:36:23.103Z,100575.91
2023-03-16T23:38:50.628Z,100567.22
2023-03-16T23:41:21.756Z,100572.38
2023-03-16T23:43:49.398Z,100550.81
2023-03-16T23:46:21.156Z,100551.72
2023-03-16T23:48:49.447Z,100546.53
2023-03-16T23:51:26.527Z,100556.91
2023-03-16T23:53:54.057Z,100545.75
2023-03-16T23:56:21.693Z,100561.25
2023-03-16T23:58:48.877Z,100550.09
